createdAt,value
2023-05-05T00:00:29.499Z,101404.84
2023-05-05T00:02:56.500Z,101404.22
2023-05-05T00:05:22.982Z,101408.78
2023-05-05T00:07:49.390Z,101402.38
2023-05-05T00:10:15.794Z,101407.75
2023-05-05T00:12:42.360Z,101409.59
2023-05-05T00:15:08.691Z,101411.50
2023-05-05T00:17:35.182Z,101408.78
2023-05-05T00:20:01.951Z,101409.59
2023-05-05T00:22:28.350Z,101405.28
2023-05-05T00:24:54.860Z,101402.59
2023-05-05T00:27:21.245Z,101408.78
2023-05-05T00:29:47.593Z,101408.78
2023-05-05T00:32:14.010Z,101399.06
2023-05-05T00:34:40.419Z,101400.72
2023-05-05T00:37:07.189Z,101398.25
2023-05-05T00:39:33.612Z,101400.94
2023-05-05T00:41:59.916Z,101407.13
2023-05-05T00:44:26.633Z,101402.59
2023-05-05T00:46:53.582Z,101399.06
2023-05-05T00:49:20.107Z,101400.09
2023-05-05T00:51:46.466Z,101403.41
2023-05-05T00:54:12.979Z,101401.75
2023-05-05T00:56:39.607Z,101402.78
2023-05-05T00:59:06.773Z,101409.00
2023-05-05T01:01:33.347Z,101404.44
2023-05-05T01:04:00.128Z,101401.97
2023-05-05T01:06:27.304Z,101397.41
2023-05-05T01:08:53.727Z,101392.03
2023-05-05T01:11:27.629Z,101393.91
2023-05-05T01:13:54.323Z,101387.50
2023-05-05T01:16:21.029Z,101378.78
2023-05-05T01:18:48.223Z,101379.63
2023-05-05T01:21:15.257Z,101382.53
2023-05-05T01:23:43.787Z,101369.69
2023-05-05T01:26:20.029Z,101382.31
2023-05-05T01:28:46.497Z,101377.16
2023-05-05T01:31:13.115Z,101380.69
2023-05-05T01:33:39.764Z,101386.66
2023-05-05T01:36:06.326Z,101385.22
2023-05-05T01:38:36.636Z,101392.25
2023-05-05T01:41:03.036Z,101387.91
2023-05-05T01:43:29.387Z,101386.25
2023-05-05T01:45:55.818Z,101387.91
2023-05-05T01:48:22.569Z,101392.47
2023-05-05T01:50:49.167Z,101379.03
2023-05-05T01:53:15.485Z,101387.09
2023-05-05T01:55:42.726Z,101376.56
2023-05-05T01:58:09.162Z,101379.25
2023-05-05T02:00:35.997Z,101373.84
2023-05-05T02:03:02.844Z,101383.56
2023-05-05T02:05:30.271Z,101379.84
2023-05-05T02:07:56.615Z,101376.56
2023-05-05T02:10:23.577Z,101371.16
2023-05-05T02:12:50.033Z,101370.34
2023-05-05T02:15:16.474Z,101378.41
2023-05-05T02:17:42.929Z,101379.25
2023-05-05T02:20:09.446Z,101381.09
2023-05-05T02:22:35.969Z,101382.94
2023-05-05T02:25:02.358Z,101377.56
2023-05-05T02:27:29.791Z,101388.31
2023-05-05T02:29:56.116Z,101391.84
2023-05-05T02:32:22.890Z,101392.91
2023-05-05T02:34:49.597Z,101389.38
2023-05-05T02:37:17.316Z,101391.84
2023-05-05T02:39:43.913Z,101389.38
2023-05-05T02:42:10.471Z,101381.94
2023-05-05T02:44:37.023Z,101376.97
2023-05-05T02:47:03.405Z,101379.44
2023-05-05T02:49:30.210Z,101382.34
2023-05-05T02:51:56.762Z,101381.31
2023-05-05T02:54:23.224Z,101391.25
2023-05-05T02:56:49.540Z,101392.06
2023-05-05T02:59:16.382Z,101391.25
2023-05-05T03:01:42.975Z,101390.41
2023-05-05T03:04:09.430Z,101387.72
2023-05-05T03:06:36.263Z,101393.13
2023-05-05T03:09:02.836Z,101392.28
2023-05-05T03:11:29.171Z,101389.59
2023-05-05T03:13:55.691Z,101387.72
2023-05-05T03:16:22.186Z,101396.00
2023-05-05T03:18:48.799Z,101395.81
2023-05-05T03:21:15.504Z,101394.97
2023-05-05T03:23:41.986Z,101393.31
2023-05-05T03:26:08.768Z,101394.97
2023-05-05T03:28:35.187Z,101395.38
2023-05-05T03:31:01.589Z,101390.81
2023-05-05T03:33:28.136Z,101392.47
2023-05-05T03:35:54.736Z,101387.94
2023-05-05T03:38:21.323Z,101394.53
2023-05-05T03:40:48.285Z,101393.50
2023-05-05T03:43:18.158Z,101393.72
2023-05-05T03:45:44.487Z,101394.38
2023-05-05T03:48:11.231Z,101393.50
2023-05-05T03:50:39.218Z,101388.56
2023-05-05T03:53:05.602Z,101394.53
2023-05-05T03:55:32.300Z,101395.38
2023-05-05T03:57:58.811Z,101396.41
2023-05-05T04:00:25.423Z,101387.09
2023-05-05T04:02:51.835Z,101384.84
2023-05-05T04:05:18.264Z,101379.47
2023-05-05T04:07:44.761Z,101382.16
2023-05-05T04:10:11.202Z,101388.56
2023-05-05T04:12:37.620Z,101388.78
2023-05-05T04:15:04.117Z,101400.34
2023-05-05T04:17:30.537Z,101396.66
2023-05-05T04:19:56.945Z,101396.66
2023-05-05T04:22:23.322Z,101401.19
2023-05-05T04:24:50.617Z,101403.88
2023-05-05T04:27:17.072Z,101403.88
2023-05-05T04:29:43.494Z,101408.22
2023-05-05T04:32:09.911Z,101393.94
2023-05-05T04:34:36.431Z,101389.59
2023-05-05T04:37:03.059Z,101392.47
2023-05-05T04:39:29.507Z,101404.09
2023-05-05T04:41:55.907Z,101395.41
2023-05-05T04:44:22.370Z,101402.66
2023-05-05T04:46:48.740Z,101406.19
2023-05-05T04:49:15.145Z,101409.06
2023-05-05T04:51:41.498Z,101404.50
2023-05-05T04:54:07.919Z,101416.31
2023-05-05T04:56:34.302Z,101415.47
2023-05-05T04:59:00.710Z,101419.63
2023-05-05T05:01:27.705Z,101413.63
2023-05-05T05:03:54.311Z,101417.16
2023-05-05T05:06:24.405Z,101416.50
2023-05-05T05:08:50.933Z,101414.66
2023-05-05T05:11:17.238Z,101427.91
2023-05-05T05:13:43.639Z,101427.06
2023-05-05T05:16:10.366Z,101425.22
2023-05-05T05:18:36.857Z,101431.59
2023-05-05T05:21:03.291Z,101434.28
2023-05-05T05:23:29.680Z,101429.75
2023-05-05T05:25:56.018Z,101427.91
2023-05-05T05:28:22.635Z,101433.50
2023-05-05T05:30:48.964Z,101443.41
2023-05-05T05:33:15.369Z,101433.28
2023-05-05T05:35:41.817Z,101429.53
2023-05-05T05:38:08.239Z,101439.69
2023-05-05T05:40:36.935Z,101439.47
2023-05-05T05:43:03.482Z,101438.47
2023-05-05T05:45:30.266Z,101430.63
2023-05-05T05:47:56.749Z,101439.28
2023-05-05T05:50:23.622Z,101433.06
2023-05-05T05:52:50.047Z,101428.72
2023-05-05T05:55:17.077Z,101427.69
2023-05-05T05:57:43.539Z,101426.88
2023-05-05T06:00:10.134Z,101424.00
2023-05-05T06:02:36.709Z,101435.97
2023-05-05T06:05:03.091Z,101429.75
2023-05-05T06:07:29.468Z,101426.03
2023-05-05T06:09:55.960Z,101426.03
2023-05-05T06:12:22.316Z,101432.66
2023-05-05T06:14:49.318Z,101432.84
2023-05-05T06:17:15.691Z,101431.19
2023-05-05T06:19:42.137Z,101450.84
2023-05-05T06:22:08.561Z,101440.69
2023-05-05T06:24:35.485Z,101443.38
2023-05-05T06:27:01.779Z,101450.44
2023-05-05T06:29:30.027Z,101447.75
2023-05-05T06:31:56.462Z,101443.38
2023-05-05T06:34:22.919Z,101439.69
2023-05-05T06:36:49.215Z,101444.00
2023-05-05T06:39:16.230Z,101444.22
2023-05-05T06:41:43.513Z,101444.00
2023-05-05T06:44:09.924Z,101445.06
2023-05-05T06:46:36.376Z,101446.69
2023-05-05T06:49:03.211Z,101438.63
2023-05-05T06:51:29.899Z,101445.06
2023-05-05T06:53:56.305Z,101442.13
2023-05-05T06:56:23.159Z,101438.84
2023-05-05T06:58:49.996Z,101444.00
2023-05-05T07:01:16.620Z,101441.31
2023-05-05T07:03:43.612Z,101440.47
2023-05-05T07:06:10.541Z,101438.63
2023-05-05T07:08:36.937Z,101430.56
2023-05-05T07:11:03.498Z,101428.91
2023-05-05T07:13:29.947Z,101435.09
2023-05-05T07:15:56.387Z,101435.09
2023-05-05T07:18:22.738Z,101434.91
2023-05-05T07:20:49.574Z,101435.72
2023-05-05T07:23:16.194Z,101427.66
2023-05-05T07:25:42.847Z,101430.34
2023-05-05T07:28:09.790Z,101424.97
2023-05-05T07:30:36.152Z,101428.47
2023-05-05T07:33:02.521Z,101426.66
2023-05-05T07:35:28.982Z,101420.59
2023-05-05T07:37:55.578Z,101415.03
2023-05-05T07:40:22.127Z,101423.97
2023-05-05T07:42:48.517Z,101425.59
2023-05-05T07:45:14.956Z,101436.53
2023-05-05T07:47:41.552Z,101435.53
2023-05-05T07:50:08.676Z,101438.22
2023-05-05T07:52:46.853Z,101436.38
2023-05-05T07:55:18.135Z,101439.91
2023-05-05T07:57:48.252Z,101439.22
2023-05-05T08:00:14.601Z,101446.28
2023-05-05T08:02:41.033Z,101447.13
2023-05-05T08:05:08.585Z,101444.44
2023-05-05T08:07:35.429Z,101451.66
2023-05-05T08:10:01.892Z,101443.38
2023-05-05T08:12:30.745Z,101448.97
2023-05-05T08:14:57.390Z,101450.66
2023-05-05T08:17:24.331Z,101447.13
2023-05-05T08:19:50.793Z,101447.97
2023-05-05T08:22:17.434Z,101449.81
2023-05-05T08:24:44.181Z,101443.38
2023-05-05T08:27:10.590Z,101448.75
2023-05-05T08:29:37.009Z,101450.44
2023-05-05T08:32:03.554Z,101445.88
2023-05-05T08:34:29.887Z,101440.50
2023-05-05T08:36:56.297Z,101444.22
2023-05-05T08:39:22.801Z,101438.00
2023-05-05T08:41:49.252Z,101442.38
2023-05-05T08:44:17.372Z,101438.84
2023-05-05T08:46:43.773Z,101429.72
2023-05-05T08:49:17.339Z,101426.22
2023-05-05T08:51:43.884Z,101426.44
2023-05-05T08:54:10.277Z,101422.50
2023-05-05T08:56:36.654Z,101418.97
2023-05-05T08:59:03.567Z,101417.13
2023-05-05T09:01:30.132Z,101411.72
2023-05-05T09:03:57.111Z,101415.22
2023-05-05T09:06:23.443Z,101424.34
2023-05-05T09:08:49.912Z,101415.47
2023-05-05T09:11:16.792Z,101418.97
2023-05-05T09:13:43.255Z,101421.66
2023-05-05T09:16:09.690Z,101414.44
2023-05-05T09:18:36.309Z,101426.81
2023-05-05T09:21:02.698Z,101426.81
2023-05-05T09:23:29.397Z,101426.81
2023-05-05T09:25:58.687Z,101430.34
2023-05-05T09:28:25.126Z,101425.19
2023-05-05T09:30:51.700Z,101418.97
2023-05-05T09:33:18.333Z,101416.06
2023-05-05T09:35:45.251Z,101415.22
2023-05-05T09:38:12.003Z,101410.47
2023-05-05T09:40:38.900Z,101417.50
2023-05-05T09:43:05.526Z,101415.66
2023-05-05T09:45:31.849Z,101413.75
2023-05-05T09:48:00.164Z,101416.91
2023-05-05T09:50:27.037Z,101414.81
2023-05-05T09:52:53.397Z,101412.97
2023-05-05T09:55:20.064Z,101411.06
2023-05-05T09:57:46.653Z,101416.44
2023-05-05T10:00:13.014Z,101428.06
2023-05-05T10:02:39.705Z,101422.66
2023-05-05T10:05:06.221Z,101427.47
2023-05-05T10:07:32.731Z,101428.06
2023-05-05T10:09:59.524Z,101429.91
2023-05-05T10:12:29.564Z,101422.66
2023-05-05T10:14:56.164Z,101417.28
2023-05-05T10:17:22.640Z,101416.25
2023-05-05T10:19:49.134Z,101410.66
2023-05-05T10:22:15.534Z,101411.69
2023-05-05T10:24:42.100Z,101401.97
2023-05-05T10:27:09.158Z,101400.94
2023-05-05T10:29:36.564Z,101403.63
2023-05-05T10:32:16.269Z,101388.28
2023-05-05T10:34:49.530Z,101391.22
2023-05-05T10:37:16.012Z,101392.03
2023-05-05T10:39:43.005Z,101392.03
2023-05-05T10:42:09.605Z,101391.81
2023-05-05T10:44:36.343Z,101388.28
2023-05-05T10:47:02.716Z,101382.91
2023-05-05T10:49:32.077Z,101372.97
2023-05-05T10:51:58.710Z,101371.34
2023-05-05T10:54:25.468Z,101367.59
2023-05-05T10:56:51.842Z,101370.28
2023-05-05T10:59:20.761Z,101367.59
2023-05-05T11:01:47.178Z,101371.13
2023-05-05T11:04:14.035Z,101373.81
2023-05-05T11:06:40.642Z,101377.31
2023-05-05T11:09:13.530Z,101368.44
2023-05-05T11:11:40.052Z,101371.94
2023-05-05T11:14:06.407Z,101368.44
2023-05-05T11:16:33.173Z,101360.16
2023-05-05T11:18:59.616Z,101363.88
2023-05-05T11:21:26.127Z,101359.31
2023-05-05T11:23:52.474Z,101369.03
2023-05-05T11:26:19.314Z,101359.31
2023-05-05T11:28:46.362Z,101357.47
2023-05-05T11:31:12.712Z,101360.16
2023-05-05T11:33:39.340Z,101356.63
2023-05-05T11:36:06.785Z,101351.03
2023-05-05T11:38:33.632Z,101350.19
2023-05-05T11:41:00.211Z,101344.81
2023-05-05T11:43:27.146Z,101353.72
2023-05-05T11:45:53.990Z,101343.78
2023-05-05T11:48:20.673Z,101349.16
2023-05-05T11:50:47.029Z,101347.28
2023-05-05T11:53:13.712Z,101346.47
2023-05-05T11:55:40.162Z,101341.91
2023-05-05T11:58:06.535Z,101344.59
2023-05-05T12:00:34.952Z,101341.91
2023-05-05T12:03:01.998Z,101346.47
2023-05-05T12:05:28.595Z,101340.06
2023-05-05T12:07:54.948Z,101343.56
2023-05-05T12:10:21.811Z,101332.78
2023-05-05T12:12:48.451Z,101330.09
2023-05-05T12:15:14.993Z,101330.09
2023-05-05T12:17:41.397Z,101325.56
2023-05-05T12:20:09.390Z,101332.59
2023-05-05T12:22:38.783Z,101321.81
2023-05-05T12:25:05.236Z,101317.28
2023-05-05T12:27:31.616Z,101311.28
2023-05-05T12:29:57.994Z,101314.81
2023-05-05T12:32:24.336Z,101312.09
2023-05-05T12:34:50.910Z,101300.50
2023-05-05T12:37:17.212Z,101309.41
2023-05-05T12:39:43.957Z,101300.50
2023-05-05T12:42:10.340Z,101295.13
2023-05-05T12:44:37.399Z,101290.59
2023-05-05T12:47:03.832Z,101287.06
2023-05-05T12:49:30.328Z,101279.59
2023-05-05T12:51:56.732Z,101273.59
2023-05-05T12:54:23.132Z,101274.44
2023-05-05T12:56:49.543Z,101266.38
2023-05-05T12:59:15.886Z,101271.53
2023-05-05T13:01:42.306Z,101268.22
2023-05-05T13:04:08.754Z,101283.09
2023-05-05T13:06:35.151Z,101278.78
2023-05-05T13:09:01.651Z,101287.69
2023-05-05T13:11:28.565Z,101278.78
2023-05-05T13:13:55.935Z,101280.41
2023-05-05T13:16:22.312Z,101282.28
2023-05-05T13:18:49.109Z,101277.72
2023-05-05T13:21:17.872Z,101277.13
2023-05-05T13:23:44.378Z,101278.78
2023-05-05T13:26:10.771Z,101268.22
2023-05-05T13:28:37.101Z,101263.47
2023-05-05T13:31:03.494Z,101273.38
2023-05-05T13:33:30.223Z,101269.84
2023-05-05T13:35:56.850Z,101266.16
2023-05-05T13:38:23.186Z,101263.47
2023-05-05T13:40:49.533Z,101265.31
2023-05-05T13:43:16.048Z,101258.06
2023-05-05T13:45:42.769Z,101249.16
2023-05-05T13:48:09.465Z,101249.16
2023-05-05T13:50:38.456Z,101254.34
2023-05-05T13:53:05.806Z,101245.44
2023-05-05T13:55:32.270Z,101243.56
2023-05-05T13:57:58.681Z,101233.66
2023-05-05T14:00:25.371Z,101231.75
2023-05-05T14:02:51.813Z,101234.44
2023-05-05T14:05:18.265Z,101221.00
2023-05-05T14:07:44.678Z,101215.63
2023-05-05T14:10:11.273Z,101228.03
2023-05-05T14:12:37.977Z,101223.69
2023-05-05T14:15:04.676Z,101220.78
2023-05-05T14:17:31.154Z,101216.25
2023-05-05T14:19:57.799Z,101219.94
2023-05-05T14:22:25.396Z,101211.88
2023-05-05T14:24:51.775Z,101219.72
2023-05-05T14:27:18.100Z,101215.41
2023-05-05T14:29:44.701Z,101221.63
2023-05-05T14:32:11.456Z,101215.41
2023-05-05T14:34:37.971Z,101215.41
2023-05-05T14:37:04.526Z,101215.41
2023-05-05T14:39:31.016Z,101213.53
2023-05-05T14:41:58.878Z,101214.34
2023-05-05T14:44:25.278Z,101208.97
2023-05-05T14:46:51.664Z,101202.78
2023-05-05T14:49:18.309Z,101200.91
2023-05-05T14:51:44.826Z,101198.00
2023-05-05T14:54:24.036Z,101199.88
2023-05-05T14:56:50.935Z,101203.59
2023-05-05T14:59:17.697Z,101207.13
2023-05-05T15:01:44.123Z,101204.41
2023-05-05T15:04:10.629Z,101201.50
2023-05-05T15:06:37.386Z,101196.13
2023-05-05T15:09:03.706Z,101196.13
2023-05-05T15:11:30.411Z,101195.28
2023-05-05T15:13:57.503Z,101194.25
2023-05-05T15:16:23.999Z,101192.38
2023-05-05T15:18:51.674Z,101191.56
2023-05-05T15:21:18.187Z,101184.31
2023-05-05T15:23:44.565Z,101186.16
2023-05-05T15:26:11.008Z,101188.66
2023-05-05T15:28:37.691Z,101174.38
2023-05-05T15:31:04.470Z,101176.81
2023-05-05T15:33:30.849Z,101168.75
2023-05-05T15:35:57.388Z,101169.59
2023-05-05T15:38:23.758Z,101163.38
2023-05-05T15:40:50.406Z,101163.16
2023-05-05T15:43:17.077Z,101161.53
2023-05-05T15:45:43.566Z,101163.16
2023-05-05T15:48:09.990Z,101166.69
2023-05-05T15:50:36.456Z,101158.59
2023-05-05T15:53:04.305Z,101156.75
2023-05-05T15:55:30.975Z,101168.31
2023-05-05T15:57:57.351Z,101160.03
2023-05-05T16:00:23.687Z,101153.81
2023-05-05T16:02:50.392Z,101157.34
2023-05-05T16:05:16.747Z,101155.47
2023-05-05T16:07:43.037Z,101149.25
2023-05-05T16:10:09.370Z,101151.75
2023-05-05T16:12:35.887Z,101150.09
2023-05-05T16:15:02.253Z,101148.00
2023-05-05T16:17:28.640Z,101139.13
2023-05-05T16:19:54.988Z,101148.00
2023-05-05T16:22:21.356Z,101144.50
2023-05-05T16:24:47.718Z,101138.88
2023-05-05T16:27:14.342Z,101143.44
2023-05-05T16:29:40.673Z,101144.25
2023-05-05T16:32:07.799Z,101138.88
2023-05-05T16:34:34.640Z,101131.63
2023-05-05T16:37:01.267Z,101137.84
2023-05-05T16:39:27.803Z,101131.63
2023-05-05T16:41:54.351Z,101134.31
2023-05-05T16:44:20.777Z,101138.66
2023-05-05T16:46:47.322Z,101141.34
2023-05-05T16:49:13.742Z,101149.41
2023-05-05T16:51:40.106Z,101141.34
2023-05-05T16:54:06.698Z,101145.91
2023-05-05T16:56:37.383Z,101137.59
2023-05-05T16:59:03.883Z,101145.66
2023-05-05T17:01:30.271Z,101142.97
2023-05-05T17:03:58.737Z,101135.97
2023-05-05T17:06:25.137Z,101139.25
2023-05-05T17:08:51.626Z,101132.22
2023-05-05T17:11:18.567Z,101134.91
2023-05-05T17:13:44.957Z,101136.56
2023-05-05T17:16:11.368Z,101133.88
2023-05-05T17:18:38.083Z,101137.38
2023-05-05T17:21:04.434Z,101142.75
2023-05-05T17:23:33.513Z,101142.75
2023-05-05T17:26:00.189Z,101142.75
2023-05-05T17:28:26.762Z,101139.25
2023-05-05T17:30:53.718Z,101142.75
2023-05-05T17:33:20.241Z,101143.59
2023-05-05T17:35:46.706Z,101153.31
2023-05-05T17:38:13.178Z,101140.91
2023-05-05T17:40:39.613Z,101137.16
2023-05-05T17:43:05.987Z,101146.88
2023-05-05T17:45:32.561Z,101141.50
2023-05-05T17:47:59.028Z,101138.78
2023-05-05T17:50:25.412Z,101143.97
2023-05-05T17:52:51.786Z,101147.50
2023-05-05T17:55:18.275Z,101144.78
2023-05-05T17:57:47.208Z,101140.22
2023-05-05T18:00:13.550Z,101146.44
2023-05-05T18:02:40.944Z,101155.34
2023-05-05T18:05:08.049Z,101166.91
2023-05-05T18:07:34.678Z,101149.97
2023-05-05T18:10:01.088Z,101160.50
2023-05-05T18:12:27.863Z,101168.59
2023-05-05T18:14:54.323Z,101168.59
2023-05-05T18:17:20.863Z,101156.97
2023-05-05T18:19:49.098Z,101156.97
2023-05-05T18:22:15.801Z,101166.91
2023-05-05T18:24:42.624Z,101165.06
2023-05-05T18:27:08.997Z,101168.81
2023-05-05T18:29:35.351Z,101179.56
2023-05-05T18:32:01.647Z,101181.00
2023-05-05T18:34:28.610Z,101182.03
2023-05-05T18:36:55.421Z,101178.53
2023-05-05T18:39:21.712Z,101187.44
2023-05-05T18:41:48.341Z,101190.13
2023-05-05T18:44:15.020Z,101189.06
2023-05-05T18:46:41.370Z,101192.81
2023-05-05T18:49:08.080Z,101197.13
2023-05-05T18:51:34.361Z,101200.63
2023-05-05T18:54:00.857Z,101193.41
2023-05-05T18:56:27.570Z,101197.94
2023-05-05T18:58:53.980Z,101185.53
2023-05-05T19:01:20.421Z,101185.31
2023-05-05T19:03:46.859Z,101181.78
2023-05-05T19:06:13.366Z,101190.69
2023-05-05T19:08:39.880Z,101184.47
2023-05-05T19:11:06.630Z,101185.31
2023-05-05T19:13:33.041Z,101185.31
2023-05-05T19:15:59.484Z,101195.25
2023-05-05T19:18:25.850Z,101209.53
2023-05-05T19:20:52.372Z,101200.63
2023-05-05T19:23:18.810Z,101209.53
2023-05-05T19:25:45.337Z,101203.31
2023-05-05T19:28:11.904Z,101214.94
2023-05-05T19:30:38.259Z,101205.00
2023-05-05T19:33:04.957Z,101209.75
2023-05-05T19:35:31.734Z,101212.25
2023-05-05T19:37:58.350Z,101211.41
2023-05-05T19:40:24.922Z,101206.28
2023-05-05T19:42:51.269Z,101203.56
2023-05-05T19:45:18.164Z,101202.75
2023-05-05T19:47:44.764Z,101199.22
2023-05-05T19:50:11.702Z,101186.59
2023-05-05T19:52:38.168Z,101190.13
2023-05-05T19:55:04.661Z,101197.34
2023-05-05T19:57:31.100Z,101191.13
2023-05-05T19:59:59.870Z,101198.19
2023-05-05T20:02:26.385Z,101200.06
2023-05-05T20:04:53.304Z,101198.19
2023-05-05T20:07:19.737Z,101188.22
2023-05-05T20:09:46.122Z,101195.50
2023-05-05T20:12:12.512Z,101202.75
2023-05-05T20:14:39.527Z,101202.75
2023-05-05T20:17:05.945Z,101194.88
2023-05-05T20:19:32.369Z,101193.84
2023-05-05T20:21:58.970Z,101198.41
2023-05-05T20:24:25.500Z,101194.66
2023-05-05T20:26:51.925Z,101193.03
2023-05-05T20:29:18.374Z,101193.03
2023-05-05T20:31:44.798Z,101196.53
2023-05-05T20:34:11.189Z,101202.75
2023-05-05T20:36:37.798Z,101196.53
2023-05-05T20:39:04.272Z,101203.56
2023-05-05T20:41:31.066Z,101190.34
2023-05-05T20:43:57.403Z,101185.75
2023-05-05T20:46:23.897Z,101194.88
2023-05-05T20:48:50.323Z,101192.19
2023-05-05T20:51:16.722Z,101183.28
2023-05-05T20:53:43.283Z,101183.28
2023-05-05T20:56:09.829Z,101182.25
2023-05-05T20:58:36.234Z,101178.72
2023-05-05T21:01:02.673Z,101178.72
2023-05-05T21:03:29.173Z,101183.06
2023-05-05T21:05:56.784Z,101184.94
2023-05-05T21:08:23.236Z,101177.91
2023-05-05T21:10:49.820Z,101180.38
2023-05-05T21:13:16.715Z,101182.47
2023-05-05T21:15:43.126Z,101177.91
2023-05-05T21:18:09.600Z,101174.41
2023-05-05T21:20:36.052Z,101165.28
2023-05-05T21:23:02.643Z,101167.97
2023-05-05T21:25:29.148Z,101164.44
2023-05-05T21:27:55.710Z,101175.00
2023-05-05T21:30:22.191Z,101158.03
2023-05-05T21:32:48.609Z,101162.59
2023-05-05T21:35:15.180Z,101162.38
2023-05-05T21:37:41.848Z,101167.13
2023-05-05T21:40:08.665Z,101163.41
2023-05-05T21:42:35.341Z,101165.28
2023-05-05T21:45:01.816Z,101156.16
2023-05-05T21:47:28.294Z,101153.66
2023-05-05T21:49:54.892Z,101152.66
2023-05-05T21:52:21.172Z,101159.06
2023-05-05T21:54:47.573Z,101171.50
2023-05-05T21:57:14.131Z,101174.19
2023-05-05T21:59:43.489Z,101168.81
2023-05-05T22:02:09.856Z,101179.78
2023-05-05T22:04:36.728Z,101182.47
2023-05-05T22:07:03.063Z,101180.59
2023-05-05T22:09:29.416Z,101176.03
2023-05-05T22:11:56.514Z,101178.72
2023-05-05T22:14:23.587Z,101176.88
2023-05-05T22:16:50.097Z,101174.41
2023-05-05T22:19:26.309Z,101176.03
2023-05-05T22:21:52.817Z,101179.78
2023-05-05T22:24:19.547Z,101195.94
2023-05-05T22:26:45.987Z,101198.63
2023-05-05T22:29:12.434Z,101195.94
2023-05-05T22:31:39.249Z,101193.25
2023-05-05T22:34:05.672Z,101182.47
2023-05-05T22:36:32.084Z,101186.81
2023-05-05T22:38:58.538Z,101182.47
2023-05-05T22:41:25.033Z,101178.94
2023-05-05T22:43:51.540Z,101190.56
2023-05-05T22:46:18.234Z,101186.22
2023-05-05T22:48:44.633Z,101175.22
2023-05-05T22:51:10.979Z,101180.00
2023-05-05T22:53:37.350Z,101176.25
2023-05-05T22:56:03.757Z,101174.63
2023-05-05T22:58:30.507Z,101172.75
2023-05-05T23:00:56.863Z,101174.41
2023-05-05T23:03:23.323Z,101174.41
2023-05-05T23:05:49.624Z,101170.06
2023-05-05T23:08:16.106Z,101169.03
2023-05-05T23:10:42.390Z,101167.38
2023-05-05T23:13:10.177Z,101163.63
2023-05-05T23:15:36.546Z,101165.50
2023-05-05T23:18:03.217Z,101162.00
2023-05-05T23:20:30.453Z,101154.16
2023-05-05T23:22:57.012Z,101149.34
2023-05-05T23:25:23.938Z,101153.09
2023-05-05T23:27:50.409Z,101149.56
2023-05-05T23:30:16.798Z,101151.22
2023-05-05T23:32:43.663Z,101141.25
2023-05-05T23:35:10.441Z,101137.78
2023-05-05T23:37:37.485Z,101136.09
2023-05-05T23:40:03.855Z,101134.25
2023-05-05T23:42:30.254Z,101130.72
2023-05-05T23:44:56.594Z,101122.66
2023-05-05T23:47:23.019Z,101126.16
2023-05-05T23:49:49.812Z,101120.78
2023-05-05T23:52:16.195Z,101130.50
2023-05-05T23:54:43.032Z,101131.56
2023-05-05T23:57:09.811Z,101135.88
2023-05-05T23:59:36.664Z,101132.38
